Terminal Aerodrome Forecast
Issued by NWS Louisville, KY

Home | Current Version | Previous Version | Text Only | Print | Product List | Glossary On
Versions: 1 2 3 4 5 6 7 8 9 10 11 12
000
FTUS43 KLMK 200520
TAFLEX
TAF
KLEX 200520Z 2006/2106 17004KT P6SM SKC
     FM200900 00000KT 2SM BR SKC
      TEMPO 2009/2012 1/2SM FG
     FM201300 15005KT P6SM FEW250=

USA.gov is the U.S. government's official web portal to all federal, state and local government web resources and services.